Pagrindinis puslapis
METAR-TAF:

METAR-TAF

Oro uostai :

Antakija, Turkija

platuma: 36-21-46N, ilguma: 36-16-56E, Aukštis: 1950 m

Dabartinis oras

Ataskaita buvo paskelbta 51 minutes, ne 17:50 UTC
Vėjas 15 kt iš Pietvakarių
Temperatūra 26°C
Drėgmė 65%
Slėgis 1008 hPa
Matomumas 10 km arba daugiau
Mažai debesys ne aukštis 2500 ft, Liūtiniai kamuoliniai debesys.
Išsisklaidę debesys ne aukštis 3000 ft
perkūnija

METAR: LTDA 151750Z 22015KT 9999 TS FEW025CB SCT030 26/19 Q1008 NOSIG

Laikas: 21:41 (18:41 UTC)

Prognozė

Ataskaita buvo paskelbta 2 valandos ir 1 minutes, ne 16:40 UTC
Prognozė galioja nuo 15 metu 18 UTC su 16 metu 03 UTC
Vėjas 15 kt iš Vakarų/Pietvakarių
Matomumas 10 km arba daugiau
Išsisklaidę debesys ne aukštis 3500 ft
Laikinai
nuo 15 metu 21 UTC su 15 metu 24 UTC
Vėjas 18 kt iš Vakarų/Pietvakarių su gūsio iki 28 kt

TAF: LTDA 151640Z 1518/1603 24015KT 9999 SCT035 TEMPO 1521/1524 24018G28KT

Orai ataskaitas ir orų prognozės (METAR, TAF).

turimą stotys yra geltonos ir raudonos taškus žemėlapyje.

Perkelti pele per norėdami pamatyti stoties vardą.

Tada spustelėkite, norėdami matyti oro stebėjimo ir prognozės.

Norėdami pakeisti žemėlapį: spustelėkite ant žalios mygtukų su juodo kryžiaus žemyn,; žalią mygtuką su brūkšneliu, jei norite nutolinti; arba žalių rodyklių gretimoms žemėlapius.


METAR-TAF: